sensor_id;sensor_type;location;lat;lon;timestamp;pressure;altitude;pressure_sealevel;temperature;humidity
51081;BME280;37130;55.670;37.596;2023-01-29T00:00:07;99690.59;;;-2.02;84.47
51081;BME280;37130;55.670;37.596;2023-01-29T00:02:39;99694.06;;;-2.00;84.42
51081;BME280;37130;55.670;37.596;2023-01-29T00:05:07;99672.38;;;-2.13;84.39
51081;BME280;37130;55.670;37.596;2023-01-29T00:07:53;99615.19;;;-2.36;84.45
51081;BME280;37130;55.670;37.596;2023-01-29T00:10:22;99611.72;;;-2.43;84.11
51081;BME280;37130;55.670;37.596;2023-01-29T00:12:50;99707.94;;;-1.92;84.71
51081;BME280;37130;55.670;37.596;2023-01-29T00:15:17;99665.44;;;-2.18;84.28
51081;BME280;37130;55.670;37.596;2023-01-29T00:17:47;99710.53;;;-1.93;84.28
51081;BME280;37130;55.670;37.596;2023-01-29T00:20:14;99642.84;;;-2.43;83.66
51081;BME280;37130;55.670;37.596;2023-01-29T00:22:43;99706.25;;;-1.85;83.52
51081;BME280;37130;55.670;37.596;2023-01-29T00:25:10;99633.41;;;-2.27;83.90
51081;BME280;37130;55.670;37.596;2023-01-29T00:27:38;99665.53;;;-2.02;83.33
51081;BME280;37130;55.670;37.596;2023-01-29T00:30:06;99691.56;;;-1.80;83.26
51081;BME280;37130;55.670;37.596;2023-01-29T00:32:41;99679.41;;;-1.87;83.78
51081;BME280;37130;55.670;37.596;2023-01-29T00:35:09;99677.66;;;-1.87;83.25
51081;BME280;37130;55.670;37.596;2023-01-29T00:37:36;99690.69;;;-1.78;83.01
51081;BME280;37130;55.670;37.596;2023-01-29T00:40:04;99688.09;;;-1.78;83.05
51081;BME280;37130;55.670;37.596;2023-01-29T00:42:32;99667.28;;;-1.90;82.82
51081;BME280;37130;55.670;37.596;2023-01-29T00:45:18;99673.38;;;-1.85;83.13
51081;BME280;37130;55.670;37.596;2023-01-29T00:47:46;99687.22;;;-1.80;82.95
51081;BME280;37130;55.670;37.596;2023-01-29T00:50:13;99682.91;;;-1.81;82.87
51081;BME280;37130;55.670;37.596;2023-01-29T00:52:42;99667.31;;;-1.88;83.00
51081;BME280;37130;55.670;37.596;2023-01-29T00:55:10;99677.72;;;-1.81;83.44
51081;BME280;37130;55.670;37.596;2023-01-29T00:57:38;99672.50;;;-1.82;83.21
51081;BME280;37130;55.670;37.596;2023-01-29T01:00:10;99679.44;;;-1.83;82.93
51081;BME280;37130;55.670;37.596;2023-01-29T01:02:38;99684.59;;;-1.81;82.51
51081;BME280;37130;55.670;37.596;2023-01-29T01:05:25;99582.34;;;-2.37;83.03
51081;BME280;37130;55.670;37.596;2023-01-29T01:07:56;99683.72;;;-1.86;82.68
51081;BME280;37130;55.670;37.596;2023-01-29T01:10:27;99682.00;;;-1.90;82.62
51081;BME280;37130;55.670;37.596;2023-01-29T01:13:01;99682.84;;;-1.91;82.52
51081;BME280;37130;55.670;37.596;2023-01-29T01:15:32;99672.47;;;-1.91;82.56
51081;BME280;37130;55.670;37.596;2023-01-29T01:18:01;99660.31;;;-2.00;82.21
51081;BME280;37130;55.670;37.596;2023-01-29T01:20:31;99494.75;;;-3.04;82.81
51081;BME280;37130;55.670;37.596;2023-01-29T01:22:59;99635.16;;;-2.18;82.75
51081;BME280;37130;55.670;37.596;2023-01-29T01:25:27;99579.66;;;-2.65;82.91
51081;BME280;37130;55.670;37.596;2023-01-29T01:27:56;99679.34;;;-2.00;82.82
51081;BME280;37130;55.670;37.596;2023-01-29T01:30:25;99675.00;;;-2.08;82.91
51081;BME280;37130;55.670;37.596;2023-01-29T01:32:53;99693.19;;;-2.07;82.57
51081;BME280;37130;55.670;37.596;2023-01-29T01:35:20;99688.81;;;-2.17;83.05
51081;BME280;37130;55.670;37.596;2023-01-29T01:37:48;99680.13;;;-2.21;82.90
51081;BME280;37130;55.670;37.596;2023-01-29T01:40:21;99679.25;;;-2.24;82.26
51081;BME280;37130;55.670;37.596;2023-01-29T01:42:51;99564.81;;;-2.90;81.99
51081;BME280;37130;55.670;37.596;2023-01-29T01:45:33;99674.00;;;-2.33;81.81
51081;BME280;37130;55.670;37.596;2023-01-29T01:48:03;99669.69;;;-2.31;82.27
51081;BME280;37130;55.670;37.596;2023-01-29T01:50:45;99671.41;;;-2.35;81.47
51081;BME280;37130;55.670;37.596;2023-01-29T01:53:39;99671.38;;;-2.36;81.63
51081;BME280;37130;55.670;37.596;2023-01-29T01:56:11;99547.47;;;-3.00;81.75
51081;BME280;37130;55.670;37.596;2023-01-29T01:58:44;99667.09;;;-2.33;81.05
51081;BME280;37130;55.670;37.596;2023-01-29T02:01:13;99660.13;;;-2.38;81.81
51081;BME280;37130;55.670;37.596;2023-01-29T02:03:45;99563.06;;;-2.91;81.36
51081;BME280;37130;55.670;37.596;2023-01-29T02:06:34;99647.22;;;-2.35;81.23
51081;BME280;37130;55.670;37.596;2023-01-29T02:09:23;99645.47;;;-2.38;81.53
51081;BME280;37130;55.670;37.596;2023-01-29T02:12:05;99611.66;;;-2.53;80.32
51081;BME280;37130;55.670;37.596;2023-01-29T02:14:36;99640.25;;;-2.36;81.35
51081;BME280;37130;55.670;37.596;2023-01-29T02:17:26;99556.19;;;-2.86;80.75
51081;BME280;37130;55.670;37.596;2023-01-29T02:20:19;99564.84;;;-2.78;80.60
51081;BME280;37130;55.670;37.596;2023-01-29T02:28:18;99629.06;;;-2.35;80.01
51081;BME280;37130;55.670;37.596;2023-01-29T02:36:58;99615.22;;;-2.34;79.08
51081;BME280;37130;55.670;37.596;2023-01-29T02:39:40;99603.97;;;-2.35;79.40
51081;BME280;37130;55.670;37.596;2023-01-29T02:42:25;99605.72;;;-2.31;78.82
51081;BME280;37130;55.670;37.596;2023-01-29T02:44:59;99597.00;;;-2.45;78.87
51081;BME280;37130;55.670;37.596;2023-01-29T02:47:39;99596.09;;;-2.52;78.10
51081;BME280;37130;55.670;37.596;2023-01-29T02:50:13;99592.66;;;-2.51;78.71
51081;BME280;37130;55.670;37.596;2023-01-29T02:52:44;99590.06;;;-2.49;78.32
51081;BME280;37130;55.670;37.596;2023-01-29T02:55:24;99584.03;;;-2.50;78.68
51081;BME280;37130;55.670;37.596;2023-01-29T02:58:01;99510.38;;;-2.95;78.66
51081;BME280;37130;55.670;37.596;2023-01-29T03:00:37;99549.41;;;-2.64;78.54
51081;BME280;37130;55.670;37.596;2023-01-29T03:03:13;99577.09;;;-2.49;78.20
51081;BME280;37130;55.670;37.596;2023-01-29T03:06:11;99571.91;;;-2.54;78.06
51081;BME280;37130;55.670;37.596;2023-01-29T03:08:53;99571.94;;;-2.48;77.67
51081;BME280;37130;55.670;37.596;2023-01-29T03:11:21;99581.47;;;-2.39;78.03
51081;BME280;37130;55.670;37.596;2023-01-29T03:13:57;99571.94;;;-2.42;77.35
51081;BME280;37130;55.670;37.596;2023-01-29T03:19:15;99570.22;;;-2.43;77.46
51081;BME280;37130;55.670;37.596;2023-01-29T03:21:50;99481.00;;;-2.92;77.42
51081;BME280;37130;55.670;37.596;2023-01-29T03:24:44;99551.22;;;-2.38;77.83
51081;BME280;37130;55.670;37.596;2023-01-29T03:27:38;99552.09;;;-2.43;77.28
51081;BME280;37130;55.670;37.596;2023-01-29T03:30:34;99546.03;;;-2.46;77.66
51081;BME280;37130;55.670;37.596;2023-01-29T03:37:34;99465.47;;;-2.89;76.97
51081;BME280;37130;55.670;37.596;2023-01-29T03:39:30;99527.03;;;-2.44;76.95
51081;BME280;37130;55.670;37.596;2023-01-29T03:42:04;99531.31;;;-2.47;77.05
51081;BME280;37130;55.670;37.596;2023-01-29T03:48:00;99513.06;;;-2.73;78.09
51081;BME280;37130;55.670;37.596;2023-01-29T03:51:00;99501.88;;;-2.65;77.67
51081;BME280;37130;55.670;37.596;2023-01-29T04:02:09;99484.59;;;-2.61;76.40
51081;BME280;37130;55.670;37.596;2023-01-29T04:04:42;99494.97;;;-2.59;76.47
51081;BME280;37130;55.670;37.596;2023-01-29T04:07:15;99478.47;;;-2.75;75.94
51081;BME280;37130;55.670;37.596;2023-01-29T04:09:55;99485.44;;;-2.71;76.19
51081;BME280;37130;55.670;37.596;2023-01-29T04:12:33;99473.34;;;-2.68;76.51
51081;BME280;37130;55.670;37.596;2023-01-29T04:15:04;99478.53;;;-2.60;76.79
51081;BME280;37130;55.670;37.596;2023-01-29T04:17:38;99468.16;;;-2.71;76.25
51081;BME280;37130;55.670;37.596;2023-01-29T04:20:20;99448.25;;;-2.79;76.57
51081;BME280;37130;55.670;37.596;2023-01-29T04:22:51;99474.22;;;-2.64;76.84
51081;BME280;37130;55.670;37.596;2023-01-29T04:25:24;99469.88;;;-2.68;76.58
51081;BME280;37130;55.670;37.596;2023-01-29T04:28:22;99467.28;;;-2.71;76.76
51081;BME280;37130;55.670;37.596;2023-01-29T04:31:04;99452.56;;;-2.84;77.25
51081;BME280;37130;55.670;37.596;2023-01-29T04:38:56;99461.19;;;-2.82;77.33
51081;BME280;37130;55.670;37.596;2023-01-29T04:41:52;99459.50;;;-2.77;76.77
51081;BME280;37130;55.670;37.596;2023-01-29T04:44:49;99452.53;;;-2.91;77.03
51081;BME280;37130;55.670;37.596;2023-01-29T04:50:15;99461.19;;;-2.78;77.56
51081;BME280;37130;55.670;37.596;2023-01-29T05:00:45;99456.06;;;-2.72;77.47
51081;BME280;37130;55.670;37.596;2023-01-29T05:03:17;99454.31;;;-2.73;76.77
51081;BME280;37130;55.670;37.596;2023-01-29T05:05:47;99453.44;;;-2.76;76.82
51081;BME280;37130;55.670;37.596;2023-01-29T05:08:16;99439.59;;;-2.81;77.15
51081;BME280;37130;55.670;37.596;2023-01-29T05:10:49;99365.16;;;-3.32;76.78
51081;BME280;37130;55.670;37.596;2023-01-29T05:13:19;99436.16;;;-2.82;77.17
51081;BME280;37130;55.670;37.596;2023-01-29T05:16:01;99431.81;;;-2.91;77.12
51081;BME280;37130;55.670;37.596;2023-01-29T05:18:31;99456.00;;;-2.85;77.86
51081;BME280;37130;55.670;37.596;2023-01-29T05:21:01;99280.31;;;-3.88;77.41
51081;BME280;37130;55.670;37.596;2023-01-29T05:23:30;99442.22;;;-2.77;77.11
51081;BME280;37130;55.670;37.596;2023-01-29T05:25:58;99455.19;;;-2.72;77.21
51081;BME280;37130;55.670;37.596;2023-01-29T05:28:26;99388.56;;;-3.05;77.21
51081;BME280;37130;55.670;37.596;2023-01-29T05:30:55;99445.66;;;-2.73;77.13
51081;BME280;37130;55.670;37.596;2023-01-29T05:33:28;99449.13;;;-2.77;77.76
51081;BME280;37130;55.670;37.596;2023-01-29T05:35:58;99451.72;;;-2.73;77.98
51081;BME280;37130;55.670;37.596;2023-01-29T05:38:26;99445.69;;;-2.72;77.35
51081;BME280;37130;55.670;37.596;2023-01-29T05:40:53;99451.75;;;-2.68;77.60
51081;BME280;37130;55.670;37.596;2023-01-29T05:43:23;99444.81;;;-2.71;77.62
51081;BME280;37130;55.670;37.596;2023-01-29T05:45:58;99364.31;;;-3.24;77.80
51081;BME280;37130;55.670;37.596;2023-01-29T05:48:27;99450.03;;;-2.69;77.35
51081;BME280;37130;55.670;37.596;2023-01-29T05:51:03;99425.78;;;-2.88;77.73
51081;BME280;37130;55.670;37.596;2023-01-29T05:53:31;99451.75;;;-2.68;77.30
51081;BME280;37130;55.670;37.596;2023-01-29T05:56:03;99439.66;;;-2.69;77.75
51081;BME280;37130;55.670;37.596;2023-01-29T05:58:33;99450.03;;;-2.65;77.55
51081;BME280;37130;55.670;37.596;2023-01-29T06:01:11;99414.56;;;-2.79;77.58
51081;BME280;37130;55.670;37.596;2023-01-29T06:03:39;99332.34;;;-3.31;77.67
51081;BME280;37130;55.670;37.596;2023-01-29T06:06:07;99455.22;;;-2.63;77.64
51081;BME280;37130;55.670;37.596;2023-01-29T06:08:34;99362.59;;;-3.18;77.48
51081;BME280;37130;55.670;37.596;2023-01-29T06:11:03;99450.88;;;-2.59;77.65
51081;BME280;37130;55.670;37.596;2023-01-29T06:13:30;99446.59;;;-2.53;77.59
51081;BME280;37130;55.670;37.596;2023-01-29T06:15:58;99450.06;;;-2.48;77.44
51081;BME280;37130;55.670;37.596;2023-01-29T06:18:25;99455.28;;;-2.46;77.86
51081;BME280;37130;55.670;37.596;2023-01-29T06:20:53;99341.91;;;-3.10;77.60
51081;BME280;37130;55.670;37.596;2023-01-29T06:23:21;99458.72;;;-2.47;77.57
51081;BME280;37130;55.670;37.596;2023-01-29T06:25:48;99453.53;;;-2.47;77.21
51081;BME280;37130;55.670;37.596;2023-01-29T06:28:15;99440.56;;;-2.46;76.96
51081;BME280;37130;55.670;37.596;2023-01-29T06:30:43;99433.66;;;-2.45;77.65
51081;BME280;37130;55.670;37.596;2023-01-29T06:33:10;99431.09;;;-2.44;77.42
51081;BME280;37130;55.670;37.596;2023-01-29T06:35:38;99417.22;;;-2.52;77.51
51081;BME280;37130;55.670;37.596;2023-01-29T06:38:05;99437.13;;;-2.45;76.82
51081;BME280;37130;55.670;37.596;2023-01-29T06:40:33;99439.72;;;-2.40;77.35
51081;BME280;37130;55.670;37.596;2023-01-29T06:43:00;99431.97;;;-2.35;76.94
51081;BME280;37130;55.670;37.596;2023-01-29T06:45:28;99438.88;;;-2.30;76.96
51081;BME280;37130;55.670;37.596;2023-01-29T06:47:55;99361.91;;;-2.66;76.72
51081;BME280;37130;55.670;37.596;2023-01-29T06:50:24;99433.69;;;-2.24;76.85
51081;BME280;37130;55.670;37.596;2023-01-29T06:52:52;99335.97;;;-2.80;76.81
51081;BME280;37130;55.670;37.596;2023-01-29T06:55:19;99427.63;;;-2.32;76.63
51081;BME280;37130;55.670;37.596;2023-01-29T06:57:47;99399.97;;;-2.40;76.25
51081;BME280;37130;55.670;37.596;2023-01-29T07:00:14;99415.53;;;-2.19;76.54
51081;BME280;37130;55.670;37.596;2023-01-29T07:02:43;99297.94;;;-2.84;76.53
51081;BME280;37130;55.670;37.596;2023-01-29T07:05:11;99400.84;;;-2.20;76.55
51081;BME280;37130;55.670;37.596;2023-01-29T07:07:39;99379.22;;;-2.40;76.84
51081;BME280;37130;55.670;37.596;2023-01-29T07:10:07;99352.41;;;-2.58;76.68
51081;BME280;37130;55.670;37.596;2023-01-29T07:12:35;99392.19;;;-2.08;76.53
51081;BME280;37130;55.670;37.596;2023-01-29T07:15:03;99380.09;;;-2.08;76.15
51081;BME280;37130;55.670;37.596;2023-01-29T07:17:30;99400.84;;;-1.99;76.11
51081;BME280;37130;55.670;37.596;2023-01-29T07:19:58;99384.44;;;-2.07;76.12
51081;BME280;37130;55.670;37.596;2023-01-29T07:22:25;99372.31;;;-2.15;76.32
51081;BME280;37130;55.670;37.596;2023-01-29T07:24:53;99403.44;;;-1.92;76.23
51081;BME280;37130;55.670;37.596;2023-01-29T07:27:21;99406.03;;;-1.92;76.21
51081;BME280;37130;55.670;37.596;2023-01-29T07:29:48;99216.75;;;-2.98;76.19
51081;BME280;37130;55.670;37.596;2023-01-29T07:32:16;99393.91;;;-1.81;75.95
51081;BME280;37130;55.670;37.596;2023-01-29T07:34:43;99374.03;;;-1.90;75.67
51081;BME280;37130;55.670;37.596;2023-01-29T07:37:11;99372.28;;;-1.79;75.45
51081;BME280;37130;55.670;37.596;2023-01-29T07:39:38;99389.56;;;-1.68;75.34
51081;BME280;37130;55.670;37.596;2023-01-29T07:42:06;99368.84;;;-1.90;75.17
51081;BME280;37130;55.670;37.596;2023-01-29T07:44:33;99390.47;;;-1.75;75.26
51081;BME280;37130;55.670;37.596;2023-01-29T07:47:01;99384.38;;;-1.76;75.21
51081;BME280;37130;55.670;37.596;2023-01-29T07:49:28;99386.97;;;-1.68;75.25
51081;BME280;37130;55.670;37.596;2023-01-29T07:51:56;99286.72;;;-2.29;75.08
51081;BME280;37130;55.670;37.596;2023-01-29T07:54:24;99278.94;;;-2.25;75.16
51081;BME280;37130;55.670;37.596;2023-01-29T07:56:51;99267.72;;;-2.30;74.92
51081;BME280;37130;55.670;37.596;2023-01-29T07:59:18;99378.28;;;-1.58;74.76
51081;BME280;37130;55.670;37.596;2023-01-29T08:01:46;99361.00;;;-1.55;74.48
51081;BME280;37130;55.670;37.596;2023-01-29T08:04:14;99282.34;;;-1.98;74.72
51081;BME280;37130;55.670;37.596;2023-01-29T08:06:41;99337.63;;;-1.55;74.32
51081;BME280;37130;55.670;37.596;2023-01-29T08:09:09;99354.03;;;-1.46;74.34
51081;BME280;37130;55.670;37.596;2023-01-29T08:11:37;99372.13;;;-1.26;74.21
51081;BME280;37130;55.670;37.596;2023-01-29T08:14:04;99358.28;;;-1.28;74.10
51081;BME280;37130;55.670;37.596;2023-01-29T08:16:32;99368.66;;;-1.19;74.04
51081;BME280;37130;55.670;37.596;2023-01-29T08:19:03;99346.22;;;-1.36;74.16
51081;BME280;37130;55.670;37.596;2023-01-29T08:21:30;99276.25;;;-1.80;74.31
51081;BME280;37130;55.670;37.596;2023-01-29T08:23:58;99334.91;;;-1.28;74.00
51081;BME280;37130;55.670;37.596;2023-01-29T08:26:30;99340.13;;;-1.30;73.84
51081;BME280;37130;55.670;37.596;2023-01-29T08:28:58;99358.28;;;-1.27;74.08
51081;BME280;37130;55.670;37.596;2023-01-29T08:31:26;99329.78;;;-1.36;73.58
51081;BME280;37130;55.670;37.596;2023-01-29T08:33:53;99213.19;;;-2.07;73.45
51081;BME280;37130;55.670;37.596;2023-01-29T08:36:21;99348.72;;;-1.19;73.12
51081;BME280;37130;55.670;37.596;2023-01-29T08:38:49;99242.50;;;-1.80;73.34
51081;BME280;37130;55.670;37.596;2023-01-29T08:41:17;99339.19;;;-1.17;72.80
51081;BME280;37130;55.670;37.596;2023-01-29T08:43:44;99343.56;;;-1.20;73.15
51081;BME280;37130;55.670;37.596;2023-01-29T08:46:13;99355.63;;;-1.12;73.07
51081;BME280;37130;55.670;37.596;2023-01-29T08:48:40;99345.25;;;-1.12;72.85
51081;BME280;37130;55.670;37.596;2023-01-29T08:51:08;99348.75;;;-1.20;72.43
51081;BME280;37130;55.670;37.596;2023-01-29T08:53:36;99327.16;;;-1.38;72.67
51081;BME280;37130;55.670;37.596;2023-01-29T08:56:04;99337.47;;;-1.15;72.70
51081;BME280;37130;55.670;37.596;2023-01-29T08:58:31;99311.53;;;-1.28;72.84
51081;BME280;37130;55.670;37.596;2023-01-29T09:01:10;99336.56;;;-1.09;72.54
51081;BME280;37130;55.670;37.596;2023-01-29T09:03:37;99340.00;;;-1.05;72.59
51081;BME280;37130;55.670;37.596;2023-01-29T09:06:11;99337.38;;;-1.02;72.64
51081;BME280;37130;55.670;37.596;2023-01-29T09:08:38;99326.94;;;-0.95;72.79
51081;BME280;37130;55.670;37.596;2023-01-29T09:11:06;99325.22;;;-0.93;72.49
51081;BME280;37130;55.670;37.596;2023-01-29T09:13:34;99243.19;;;-1.38;72.41
51081;BME280;37130;55.670;37.596;2023-01-29T09:16:02;99317.38;;;-0.86;71.94
51081;BME280;37130;55.670;37.596;2023-01-29T09:18:30;99155.13;;;-1.84;72.17
51081;BME280;37130;55.670;37.596;2023-01-29T09:20:58;99345.09;;;-0.87;72.08
51081;BME280;37130;55.670;37.596;2023-01-29T09:23:25;99322.63;;;-0.96;71.83
51081;BME280;37130;55.670;37.596;2023-01-29T09:25:53;99225.97;;;-1.61;72.02
51081;BME280;37130;55.670;37.596;2023-01-29T09:28:20;99332.22;;;-1.04;72.10
51081;BME280;37130;55.670;37.596;2023-01-29T09:30:48;99317.53;;;-1.14;72.28
51081;BME280;37130;55.670;37.596;2023-01-29T09:33:16;99318.44;;;-1.26;71.96
51081;BME280;37130;55.670;37.596;2023-01-29T09:35:44;99315.84;;;-1.29;72.16
51081;BME280;37130;55.670;37.596;2023-01-29T09:38:13;99282.13;;;-1.37;72.18
51081;BME280;37130;55.670;37.596;2023-01-29T09:41:02;99289.00;;;-1.26;72.05
51081;BME280;37130;55.670;37.596;2023-01-29T09:43:46;99295.06;;;-1.23;71.56
51081;BME280;37130;55.670;37.596;2023-01-29T09:46:42;99185.41;;;-1.77;71.75
51081;BME280;37130;55.670;37.596;2023-01-29T09:49:42;99283.78;;;-1.19;72.10
51081;BME280;37130;55.670;37.596;2023-01-29T09:52:22;99282.84;;;-1.08;71.82
51081;BME280;37130;55.670;37.596;2023-01-29T09:57:52;99280.25;;;-1.07;71.82
51081;BME280;37130;55.670;37.596;2023-01-29T10:00:59;99280.25;;;-1.07;71.28
51081;BME280;37130;55.670;37.596;2023-01-29T10:11:28;99250.75;;;-1.03;71.31
51081;BME280;37130;55.670;37.596;2023-01-29T10:19:38;99100.75;;;-2.06;71.12
51081;BME280;37130;55.670;37.596;2023-01-29T10:24:59;99232.59;;;-1.04;71.11
51081;BME280;37130;55.670;37.596;2023-01-29T10:27:34;99229.09;;;-0.99;70.98
51081;BME280;37130;55.670;37.596;2023-01-29T10:30:37;99114.34;;;-1.65;70.80
51081;BME280;37130;55.670;37.596;2023-01-29T10:33:16;99212.63;;;-0.96;71.07
51081;BME280;37130;55.670;37.596;2023-01-29T10:35:52;99188.31;;;-0.92;70.79
51081;BME280;37130;55.670;37.596;2023-01-29T10:38:47;99191.66;;;-0.79;71.10
51081;BME280;37130;55.670;37.596;2023-01-29T10:41:27;99195.09;;;-0.73;70.90
51081;BME280;37130;55.670;37.596;2023-01-29T10:44:00;99187.25;;;-0.71;70.62
51081;BME280;37130;55.670;37.596;2023-01-29T11:00:37;99150.75;;;-0.59;70.90
51081;BME280;37130;55.670;37.596;2023-01-29T11:03:14;99075.91;;;-1.13;70.47
51081;BME280;37130;55.670;37.596;2023-01-29T11:06:08;99158.53;;;-0.56;70.49
51081;BME280;37130;55.670;37.596;2023-01-29T11:08:58;99157.84;;;-0.76;70.67
51081;BME280;37130;55.670;37.596;2023-01-29T11:11:34;99150.91;;;-0.73;70.86
51081;BME280;37130;55.670;37.596;2023-01-29T11:14:20;99150.03;;;-0.75;70.95
51081;BME280;37130;55.670;37.596;2023-01-29T11:16:50;99142.22;;;-0.72;70.79
51081;BME280;37130;55.670;37.596;2023-01-29T11:19:18;99142.16;;;-0.67;70.94
51081;BME280;37130;55.670;37.596;2023-01-29T11:22:02;99102.50;;;-0.88;70.73
51081;BME280;37130;55.670;37.596;2023-01-29T11:24:30;98968.22;;;-1.77;70.80
51081;BME280;37130;55.670;37.596;2023-01-29T11:26:59;99095.72;;;-1.05;70.77
51081;BME280;37130;55.670;37.596;2023-01-29T11:32:05;99144.84;;;-0.73;71.44
51081;BME280;37130;55.670;37.596;2023-01-29T11:34:33;99075.88;;;-1.11;70.73
51081;BME280;37130;55.670;37.596;2023-01-29T11:37:03;99134.38;;;-0.69;70.82
51081;BME280;37130;55.670;37.596;2023-01-29T11:39:31;99131.69;;;-0.61;70.70
51081;BME280;37130;55.670;37.596;2023-01-29T11:42:03;99129.84;;;-0.47;70.65
51081;BME280;37130;55.670;37.596;2023-01-29T11:44:41;99046.22;;;-0.90;70.27
51081;BME280;37130;55.670;37.596;2023-01-29T11:49:54;99123.78;;;-0.49;70.45
51081;BME280;37130;55.670;37.596;2023-01-29T11:52:24;99044.56;;;-0.99;70.34
51081;BME280;37130;55.670;37.596;2023-01-29T11:54:59;99126.47;;;-0.55;69.87
51081;BME280;37130;55.670;37.596;2023-01-29T11:57:36;99117.25;;;-0.88;71.21
51081;BME280;37130;55.670;37.596;2023-01-29T12:03:14;99116.34;;;-0.87;70.71
51081;BME280;37130;55.670;37.596;2023-01-29T12:05:55;99113.72;;;-0.82;70.74
51081;BME280;37130;55.670;37.596;2023-01-29T12:08:25;99105.06;;;-0.84;70.54
51081;BME280;37130;55.670;37.596;2023-01-29T12:11:31;99103.34;;;-0.87;71.22
51081;BME280;37130;55.670;37.596;2023-01-29T12:14:03;99090.31;;;-0.82;70.90
51081;BME280;37130;55.670;37.596;2023-01-29T12:16:38;99107.56;;;-0.74;70.56
51081;BME280;37130;55.670;37.596;2023-01-29T12:27:53;99111.22;;;-0.95;71.27
51081;BME280;37130;55.670;37.596;2023-01-29T12:30:39;99096.59;;;-1.03;70.88
51081;BME280;37130;55.670;37.596;2023-01-29T12:33:22;99107.88;;;-1.04;71.01
51081;BME280;37130;55.670;37.596;2023-01-29T12:35:59;99107.03;;;-1.09;71.39
51081;BME280;37130;55.670;37.596;2023-01-29T12:38:28;99089.94;;;-1.34;71.62
51081;BME280;37130;55.670;37.596;2023-01-29T12:40:57;99099.28;;;-1.14;71.23
51081;BME280;37130;55.670;37.596;2023-01-29T12:46:03;99110.59;;;-1.20;71.87
51081;BME280;37130;55.670;37.596;2023-01-29T12:48:36;99062.31;;;-1.47;72.36
51081;BME280;37130;55.670;37.596;2023-01-29T12:51:12;99104.56;;;-1.25;71.87
51081;BME280;37130;55.670;37.596;2023-01-29T12:53:51;99103.72;;;-1.25;72.04
51081;BME280;37130;55.670;37.596;2023-01-29T12:56:31;99104.59;;;-1.28;72.04
51081;BME280;37130;55.670;37.596;2023-01-29T12:59:04;99102.84;;;-1.27;71.99
51081;BME280;37130;55.670;37.596;2023-01-29T13:01:42;99110.66;;;-1.29;72.59
51081;BME280;37130;55.670;37.596;2023-01-29T13:04:21;98994.34;;;-2.00;72.76
51081;BME280;37130;55.670;37.596;2023-01-29T13:07:06;99084.78;;;-1.44;72.71
51081;BME280;37130;55.670;37.596;2023-01-29T13:09:41;99039.19;;;-1.79;72.85
51081;BME280;37130;55.670;37.596;2023-01-29T13:12:16;99094.28;;;-1.39;73.27
51081;BME280;37130;55.670;37.596;2023-01-29T13:15:01;99095.19;;;-1.41;73.04
51081;BME280;37130;55.670;37.596;2023-01-29T13:17:36;99097.78;;;-1.41;73.18
51081;BME280;37130;55.670;37.596;2023-01-29T13:20:17;99037.53;;;-1.92;72.72
51081;BME280;37130;55.670;37.596;2023-01-29T13:22:46;99089.13;;;-1.43;73.03
51081;BME280;37130;55.670;37.596;2023-01-29T13:25:16;99011.63;;;-1.95;72.95
51081;BME280;37130;55.670;37.596;2023-01-29T13:27:45;99082.19;;;-1.44;73.11
51081;BME280;37130;55.670;37.596;2023-01-29T13:30:28;99087.44;;;-1.50;73.35
51081;BME280;37130;55.670;37.596;2023-01-29T13:32:59;99080.50;;;-1.50;73.37
51081;BME280;37130;55.670;37.596;2023-01-29T13:35:40;99093.53;;;-1.53;73.78
51081;BME280;37130;55.670;37.596;2023-01-29T13:38:22;99085.75;;;-1.58;73.52
51081;BME280;37130;55.670;37.596;2023-01-29T13:40:53;99031.44;;;-1.85;73.23
51081;BME280;37130;55.670;37.596;2023-01-29T13:43:22;99085.72;;;-1.51;73.34
51081;BME280;37130;55.670;37.596;2023-01-29T13:45:51;99082.25;;;-1.50;73.72
51081;BME280;37130;55.670;37.596;2023-01-29T13:48:28;99077.09;;;-1.53;73.21
51081;BME280;37130;55.670;37.596;2023-01-29T13:51:09;99068.41;;;-1.51;74.20
51081;BME280;37130;55.670;37.596;2023-01-29T13:54:13;99007.28;;;-1.95;73.99
51081;BME280;37130;55.670;37.596;2023-01-29T13:56:56;99062.34;;;-1.53;74.16
51081;BME280;37130;55.670;37.596;2023-01-29T13:59:51;99068.44;;;-1.56;74.11
51081;BME280;37130;55.670;37.596;2023-01-29T14:02:22;99058.97;;;-1.60;74.25
51081;BME280;37130;55.670;37.596;2023-01-29T14:04:51;99064.97;;;-1.51;74.47
51081;BME280;37130;55.670;37.596;2023-01-29T14:10:21;99060.69;;;-1.62;74.12
51081;BME280;37130;55.670;37.596;2023-01-29T14:15:35;99057.19;;;-1.58;74.27
51081;BME280;37130;55.670;37.596;2023-01-29T14:20:38;99052.94;;;-1.68;74.64
51081;BME280;37130;55.670;37.596;2023-01-29T14:23:43;99046.91;;;-1.70;74.81
51081;BME280;37130;55.670;37.596;2023-01-29T14:26:33;99038.25;;;-1.69;74.84
51081;BME280;37130;55.670;37.596;2023-01-29T14:31:57;99040.84;;;-1.67;74.95
51081;BME280;37130;55.670;37.596;2023-01-29T14:34:50;98920.22;;;-2.34;75.33
51081;BME280;37130;55.670;37.596;2023-01-29T14:37:34;98940.91;;;-2.28;75.56
51081;BME280;37130;55.670;37.596;2023-01-29T14:43:05;99046.03;;;-1.69;75.26
51081;BME280;37130;55.670;37.596;2023-01-29T14:45:38;99032.16;;;-1.68;75.37
51081;BME280;37130;55.670;37.596;2023-01-29T14:50:40;99041.59;;;-1.51;75.54
51081;BME280;37130;55.670;37.596;2023-01-29T14:58:43;98988.22;;;-1.88;75.65
51081;BME280;37130;55.670;37.596;2023-01-29T15:01:31;98933.91;;;-2.11;75.81
51081;BME280;37130;55.670;37.596;2023-01-29T15:04:02;99031.16;;;-1.48;76.08
51081;BME280;37130;55.670;37.596;2023-01-29T15:06:43;99034.63;;;-1.46;75.65
51081;BME280;37130;55.670;37.596;2023-01-29T15:12:26;99032.03;;;-1.48;75.75
51081;BME280;37130;55.670;37.596;2023-01-29T15:17:58;98953.75;;;-2.10;76.24
51081;BME280;37130;55.670;37.596;2023-01-29T15:20:33;99032.94;;;-1.55;76.82
51081;BME280;37130;55.670;37.596;2023-01-29T15:23:02;99027.72;;;-1.52;76.47
51081;BME280;37130;55.670;37.596;2023-01-29T15:25:35;99023.44;;;-1.58;76.25
51081;BME280;37130;55.670;37.596;2023-01-29T15:28:04;99007.06;;;-1.64;76.07
51081;BME280;37130;55.670;37.596;2023-01-29T15:30:36;99020.91;;;-1.64;76.23